Time;durP1;ratioP1;P1;durP2;ratioP2;P2;SDS_P1;SDS_P2;PMS_P1;PMS_P2;Temp;Humidity;BMP_temperature;BMP_pressure;BME280_temperature;BME280_humidity;BME280_pressure;Samples;Min_cycle;Max_cycle;Signal;HPM_P1;HPM_P2
2022/02/09 00:00:53;;;;;;;10.53;3.30;;;;;;;2.06;64.89;99842.36;1737570;81;21107;-85
2022/02/09 00:03:17;;;;;;;7.15;3.10;;;;;;;2.08;64.79;99842.83;1763816;80;21075;-83
2022/02/09 00:08:09;;;;;;;8.53;3.60;;;;;;;2.06;64.88;99848.34;1793713;79;20952;-85
2022/02/09 00:10:40;;;;;;;11.10;4.37;;;;;;;2.02;65.14;99846.98;1782240;79;20968;-85
2022/02/09 00:13:56;;;;;;;9.25;3.95;;;;;;;2.00;65.17;99841.80;1781408;79;21129;-85
2022/02/09 00:15:50;;;;;;;9.23;3.27;;;;;;;1.99;65.20;99834.53;1722732;78;21203;-82
2022/02/09 00:32:48;;;;;;;10.88;3.95;;;;;;;1.98;65.70;99887.93;1771899;79;21273;-83
2022/02/09 00:35:14;;;;;;;7.60;2.08;;;;;;;2.04;65.40;99887.20;1742362;80;21039;-85
2022/02/09 00:37:33;;;;;;;10.32;4.17;;;;;;;2.18;64.62;99899.91;1732601;78;21108;-84
2022/02/09 00:42:40;;;;;;;3.67;1.72;;;;;;;2.38;64.23;99882.36;1611605;82;21246;-89
2022/02/09 01:39:48;;;;;;;11.90;3.67;;;;;;;2.85;62.63;99849.48;1731209;81;21154;-89
2022/02/09 01:55:33;;;;;;;12.58;3.47;;;;;;;2.71;63.41;99824.83;1748897;80;21053;-85
2022/02/09 01:57:58;;;;;;;8.40;3.00;;;;;;;2.75;63.28;99821.91;1745391;80;20994;-84
2022/02/09 02:00:26;;;;;;;6.95;2.55;;;;;;;2.69;63.73;99816.23;1744949;79;20968;-84
2022/02/09 02:02:55;;;;;;;8.83;3.35;;;;;;;2.64;63.96;99817.84;1747222;79;21293;-84
2022/02/09 02:05:21;;;;;;;8.03;3.33;;;;;;;2.64;63.95;99824.25;1727174;81;21059;-85
2022/02/09 02:10:18;;;;;;;10.30;3.80;;;;;;;2.52;64.29;99815.91;1747724;79;21003;-84
2022/02/09 02:18:39;;;;;;;10.72;3.15;;;;;;;2.35;65.38;99807.04;1720120;82;21091;-88
2022/02/09 02:26:49;;;;;;;13.03;3.90;;;;;;;2.22;66.26;99827.72;1669514;83;21202;-82
2022/02/09 02:35:34;;;;;;;11.00;3.98;;;;;;;2.13;67.41;99822.00;1742428;81;21078;-85
2022/02/09 02:46:16;;;;;;;10.38;3.90;;;;;;;2.01;67.76;99843.95;1738122;79;21154;-82
2022/02/09 03:12:40;;;;;;;16.32;4.05;;;;;;;2.20;70.07;99835.81;1697536;82;21016;-84
2022/02/09 03:15:23;;;;;;;16.25;3.65;;;;;;;2.24;70.35;99845.72;1702382;81;21039;-84
2022/02/09 03:17:40;;;;;;;9.48;3.60;;;;;;;2.28;70.54;99836.83;1673049;83;21088;-84
2022/02/09 03:20:27;;;;;;;9.68;3.83;;;;;;;2.31;71.21;99827.06;1712631;82;22136;-88
2022/02/09 03:23:00;;;;;;;9.78;3.45;;;;;;;2.37;70.86;99860.55;1727635;81;21146;-86
2022/02/09 03:25:50;;;;;;;13.45;3.92;;;;;;;2.40;71.30;99832.36;1723362;81;21092;-85
2022/02/09 03:49:34;;;;;;;16.67;5.08;;;;;;;2.14;72.72;99862.20;1716456;78;21059;-88
2022/02/09 03:56:57;;;;;;;12.65;4.00;;;;;;;2.10;73.23;99862.97;1729232;79;21093;-84
2022/02/09 03:59:24;;;;;;;16.62;5.45;;;;;;;2.12;73.12;99870.28;1749253;79;21019;-86
2022/02/09 04:01:51;;;;;;;14.93;4.60;;;;;;;2.05;73.25;99846.63;1754609;79;20993;-84
2022/02/09 04:04:17;;;;;;;12.73;5.03;;;;;;;2.01;74.23;99853.81;1755076;79;21043;-83
2022/02/09 04:06:49;;;;;;;16.17;4.50;;;;;;;2.06;72.87;99851.34;1749689;80;21061;-84
2022/02/09 04:09:16;;;;;;;8.83;3.45;;;;;;;2.02;74.13;99850.83;1752091;78;21014;-84
2022/02/09 04:11:51;;;;;;;11.20;4.10;;;;;;;1.96;73.98;99854.97;1754498;79;21170;-85
2022/02/09 04:14:28;;;;;;;9.23;4.30;;;;;;;1.95;74.71;99851.98;1765173;78;20999;-84
2022/02/09 04:19:48;;;;;;;10.15;3.85;;;;;;;1.94;75.52;99861.77;1741401;78;21312;-80
2022/02/09 04:22:48;;;;;;;12.05;4.25;;;;;;;1.97;75.33;99852.02;1716714;80;21003;-84
2022/02/09 04:39:24;;;;;;;23.30;3.65;;;;;;;1.99;74.82;99880.70;1689566;81;21166;31
2022/02/09 04:44:52;;;;;;;12.35;4.10;;;;;;;2.06;75.65;99872.71;1795229;78;21058;-85
2022/02/09 04:50:14;;;;;;;16.25;5.47;;;;;;;2.11;75.89;99901.02;1788426;78;21100;-86
2022/02/09 04:52:56;;;;;;;12.53;4.30;;;;;;;2.13;75.64;99892.94;1818724;78;21037;-84
2022/02/09 04:55:30;;;;;;;14.87;4.70;;;;;;;2.14;76.15;99878.02;1786050;78;21154;-88
2022/02/09 04:57:47;;;;;;;8.90;3.85;;;;;;;2.12;76.23;99885.67;1731051;80;21559;-81
2022/02/09 05:05:36;;;;;;;10.63;4.92;;;;;;;2.14;76.44;99896.83;1648232;82;21079;-81
2022/02/09 05:20:03;;;;;;;9.75;4.40;;;;;;;2.08;77.24;99900.55;1697858;80;21067;-81
2022/02/09 05:22:03;;;;;;;14.00;4.67;;;;;;;2.06;77.64;99906.48;1688531;80;21158;-80
2022/02/09 05:24:36;;;;;;;11.45;5.28;;;;;;;2.07;77.59;99906.91;1750719;79;21023;-84
2022/02/09 05:27:01;;;;;;;15.75;4.83;;;;;;;2.09;77.57;99909.98;1771020;78;21040;-84
2022/02/09 05:29:17;;;;;;;12.73;5.03;;;;;;;2.07;77.46;99909.48;1773778;79;21012;-83
2022/02/09 05:31:43;;;;;;;14.25;5.05;;;;;;;2.03;78.03;99907.29;1772543;79;21011;-84
2022/02/09 05:34:10;;;;;;;12.40;5.17;;;;;;;2.00;78.55;99916.19;1753715;79;21027;-84
2022/02/09 05:46:32;;;;;;;12.28;4.92;;;;;;;2.06;78.95;99929.56;1678297;84;21118;-82
2022/02/09 05:51:19;;;;;;;13.20;4.80;;;;;;;2.09;79.37;99938.20;1693343;81;21090;-84
2022/02/09 05:56:20;;;;;;;12.90;4.78;;;;;;;2.10;78.59;99942.48;1652045;82;21246;-84
2022/02/09 05:58:46;;;;;;;13.35;5.12;;;;;;;2.07;79.38;99943.72;1704945;80;21103;-80
2022/02/09 06:01:05;;;;;;;16.42;4.78;;;;;;;2.08;79.36;99945.86;1698406;79;21007;-82
2022/02/09 06:03:32;;;;;;;13.00;5.55;;;;;;;2.05;79.90;99953.08;1674581;80;21258;-80
2022/02/09 06:05:59;;;;;;;10.88;5.17;;;;;;;2.08;79.31;99956.97;1694342;80;21052;-79
2022/02/09 06:08:25;;;;;;;15.32;6.05;;;;;;;2.10;79.32;99963.00;1728759;81;21040;-85
2022/02/09 06:11:07;;;;;;;19.60;6.03;;;;;;;2.03;80.53;99956.02;1711116;84;21056;-82
2022/02/09 06:13:51;;;;;;;18.25;5.03;;;;;;;2.11;79.60;99960.91;1712989;80;21438;-87
2022/02/09 06:21:44;;;;;;;13.30;5.10;;;;;;;2.13;79.73;99996.83;1705737;81;21056;-81
2022/02/09 06:24:11;;;;;;;14.55;4.90;;;;;;;2.10;80.04;99990.37;1709700;81;20976;-83
2022/02/09 06:26:38;;;;;;;13.62;5.25;;;;;;;2.16;80.33;99987.94;1704165;83;21096;-84
2022/02/09 06:29:05;;;;;;;15.08;5.08;;;;;;;2.26;79.42;99999.28;1717883;82;21084;-83
2022/02/09 06:31:33;;;;;;;16.67;5.15;;;;;;;2.25;80.12;99987.27;1718100;81;21051;-82
2022/02/09 06:33:59;;;;;;;14.93;6.10;;;;;;;2.30;80.15;99991.69;1718256;81;21055;-84
2022/02/09 06:36:26;;;;;;;16.20;6.65;;;;;;;2.31;80.37;100012.67;1717402;81;21118;-87
2022/02/09 06:38:52;;;;;;;17.55;6.80;;;;;;;2.32;80.45;100010.55;1714194;81;21121;-89
2022/02/09 06:41:19;;;;;;;15.58;6.40;;;;;;;2.38;79.78;100004.69;1711543;82;21352;-88
2022/02/09 06:43:46;;;;;;;12.63;5.87;;;;;;;2.44;79.10;100005.25;1740727;82;21020;-87
2022/02/09 06:46:13;;;;;;;13.60;5.62;;;;;;;2.43;78.96;100009.52;1708194;82;21108;-87
2022/02/09 06:48:40;;;;;;;14.07;4.92;;;;;;;2.36;80.60;100019.19;1729795;82;21039;-84
2022/02/09 06:51:11;;;;;;;15.90;5.75;;;;;;;2.43;79.09;100022.75;1727594;82;20995;-83
2022/02/09 06:53:45;;;;;;;18.70;5.83;;;;;;;2.43;79.83;100021.07;1725453;80;21047;-84
2022/02/09 06:56:04;;;;;;;14.98;5.53;;;;;;;2.49;79.58;100025.05;1725909;80;21264;-83
2022/02/09 07:01:00;;;;;;;14.38;4.90;;;;;;;2.51;79.93;100021.25;1744841;81;21033;-84
2022/02/09 07:03:27;;;;;;;15.68;6.00;;;;;;;2.58;79.92;100020.11;1766338;80;20991;-82
2022/02/09 07:05:54;;;;;;;13.05;6.12;;;;;;;2.62;79.67;100027.46;1769517;79;21034;-83
2022/02/09 07:08:20;;;;;;;13.72;5.58;;;;;;;2.62;80.19;100022.75;1759775;79;20976;-83
2022/02/09 07:10:47;;;;;;;15.63;5.53;;;;;;;2.57;80.23;100030.36;1751210;81;21020;-85
2022/02/09 07:13:14;;;;;;;17.02;6.05;;;;;;;2.53;80.73;100040.98;1720502;81;21062;-84
2022/02/09 07:15:49;;;;;;;10.03;4.53;;;;;;;2.56;80.02;100038.46;1724779;82;21056;-83
2022/02/09 07:18:14;;;;;;;15.10;5.12;;;;;;;2.64;79.59;100041.20;1721001;82;21027;-83
2022/02/09 07:23:19;;;;;;;14.07;5.12;;;;;;;2.75;79.66;100035.03;1700632;84;21023;-83
2022/02/09 07:25:37;;;;;;;13.05;5.20;;;;;;;2.83;79.97;100046.33;1715126;82;20995;-81
2022/02/09 07:28:05;;;;;;;15.05;5.58;;;;;;;2.97;79.61;100052.62;1749994;81;21042;-81
2022/02/09 07:30:31;;;;;;;14.73;5.42;;;;;;;3.05;79.53;100045.50;1744438;80;21098;-81
2022/02/09 07:33:02;;;;;;;12.07;5.35;;;;;;;3.17;79.00;100058.59;1726110;83;21457;-82
2022/02/09 07:35:29;;;;;;;12.73;5.25;;;;;;;3.29;78.59;100053.69;1741207;82;20981;-84
2022/02/09 07:37:57;;;;;;;16.65;5.25;;;;;;;3.43;77.87;100051.39;1725921;83;21045;-82
2022/02/09 07:40:24;;;;;;;21.42;6.10;;;;;;;3.51;77.55;100052.40;1722825;83;21015;-83
2022/02/09 07:42:55;;;;;;;19.32;6.55;;;;;;;3.58;77.29;100049.52;1692319;85;21204;-82
2022/02/09 07:45:41;;;;;;;13.50;5.55;;;;;;;3.62;77.08;100059.05;1744794;82;21023;-83
2022/02/09 07:50:41;;;;;;;16.27;5.50;;;;;;;3.77;76.78;100063.59;1745892;79;21000;-83
2022/02/09 07:53:13;;;;;;;11.33;5.15;;;;;;;3.88;76.59;100067.23;1692356;85;21045;-83
2022/02/09 07:55:39;;;;;;;15.90;5.28;;;;;;;3.99;76.39;100072.55;1716512;82;20997;-83
2022/02/09 07:58:06;;;;;;;18.07;6.08;;;;;;;4.12;76.43;100074.92;1724840;83;20995;-83
2022/02/09 08:00:33;;;;;;;11.83;5.70;;;;;;;4.21;75.99;100084.06;1755616;81;20981;-83
2022/02/09 08:03:00;;;;;;;12.28;5.97;;;;;;;4.30;75.52;100083.36;1753522;82;21019;-82
2022/02/09 08:05:27;;;;;;;14.73;6.03;;;;;;;4.36;75.04;100083.46;1724792;82;20982;-84
2022/02/09 08:07:54;;;;;;;14.85;6.15;;;;;;;4.40;74.50;100092.96;1755427;81;20999;-83
2022/02/09 08:10:28;;;;;;;13.18;5.28;;;;;;;4.47;74.65;100099.92;1738265;81;20949;-83
2022/02/09 08:29:04;;;;;;;16.23;6.22;;;;;;;4.73;73.92;100119.63;1731678;82;21008;-82
2022/02/09 08:33:46;;;;;;;16.27;6.33;;;;;;;4.82;73.51;100116.34;1731458;82;20972;-83
2022/02/09 08:36:14;;;;;;;17.90;6.03;;;;;;;4.85;73.83;100124.10;1729705;81;21215;-84
2022/02/09 08:38:43;;;;;;;18.95;7.20;;;;;;;4.88;73.60;100115.57;1737681;82;21028;-83
2022/02/09 08:41:10;;;;;;;12.98;6.30;;;;;;;4.93;73.59;100097.16;1713653;83;21015;-83
2022/02/09 08:43:38;;;;;;;13.88;6.87;;;;;;;4.96;73.13;100099.80;1731554;82;21030;-82
2022/02/09 08:46:05;;;;;;;17.10;6.70;;;;;;;5.03;72.95;100095.58;1748781;82;20947;-83
2022/02/09 08:48:32;;;;;;;14.03;6.67;;;;;;;5.08;73.23;100101.67;1748984;81;20995;-84
2022/02/09 08:50:58;;;;;;;16.23;7.25;;;;;;;5.16;73.42;100100.05;1744453;81;21023;-83
2022/02/09 08:53:25;;;;;;;21.37;8.48;;;;;;;5.26;73.88;100107.48;1729227;81;21093;-83
2022/02/09 08:55:52;;;;;;;20.50;8.10;;;;;;;5.32;73.32;100104.55;1727683;83;20964;-83
2022/02/09 08:58:21;;;;;;;27.60;9.63;;;;;;;5.43;72.77;100105.10;1722517;82;21091;-83
2022/02/09 09:00:48;;;;;;;22.50;7.40;;;;;;;5.48;72.20;100104.74;1706598;84;21072;-83
2022/02/09 09:03:20;;;;;;;15.45;6.53;;;;;;;5.58;71.99;100100.12;1721218;83;21091;-82
2022/02/09 09:05:50;;;;;;;16.67;5.75;;;;;;;5.59;71.30;100108.33;1714870;83;20972;-83
2022/02/09 10:01:11;;;;;;;17.05;7.12;;;;;;;6.10;69.28;100120.05;1706756;84;21041;-82
2022/02/09 10:02:57;;;;;;;20.17;7.25;;;;;;;6.17;69.65;100111.95;1744375;81;21019;-81
2022/02/09 10:14:03;;;;;;;18.42;6.47;;;;;;;6.18;69.25;100114.52;1718326;82;21004;-83
2022/02/09 10:34:20;;;;;;;10.60;5.85;;;;;;;6.44;68.35;100119.05;1774602;81;21019;-83
2022/02/09 10:36:49;;;;;;;15.98;5.95;;;;;;;6.34;68.73;100114.66;1758269;82;21028;-80
2022/02/09 10:39:20;;;;;;;15.88;6.12;;;;;;;6.35;69.04;100119.00;1736766;82;21004;-82
2022/02/09 10:42:09;;;;;;;20.05;6.83;;;;;;;6.36;69.09;100120.70;1763059;80;21102;-82
2022/02/09 10:44:27;;;;;;;18.40;6.95;;;;;;;6.33;69.04;100113.80;1758343;81;20992;-82
2022/02/09 10:46:57;;;;;;;13.28;6.83;;;;;;;6.34;69.01;100118.54;1725800;82;20983;-82
2022/02/09 10:49:30;;;;;;;16.12;6.67;;;;;;;6.29;69.02;100109.47;1735904;83;21124;-82
2022/02/09 10:54:31;;;;;;;17.37;7.25;;;;;;;6.41;68.91;100119.47;1765992;80;21003;-82
2022/02/09 10:56:59;;;;;;;17.35;6.53;;;;;;;6.37;68.75;100125.04;1789598;80;21059;-82
2022/02/09 10:59:29;;;;;;;20.60;7.65;;;;;;;6.40;68.71;100116.00;1757161;80;20986;-82
2022/02/09 11:02:00;;;;;;;17.05;6.78;;;;;;;6.36;68.79;100112.52;1726522;82;20977;-83
2022/02/09 11:04:29;;;;;;;22.37;7.33;;;;;;;6.46;68.60;100112.17;1702858;84;21101;-83
2022/02/09 11:06:56;;;;;;;18.92;7.97;;;;;;;6.44;68.96;100120.34;1739198;82;21027;-82
2022/02/09 11:09:23;;;;;;;12.78;6.00;;;;;;;6.51;68.84;100112.23;1754038;81;20996;-82
2022/02/09 11:11:51;;;;;;;13.48;6.45;;;;;;;6.50;68.80;100106.61;1759266;80;21026;-82
2022/02/09 11:14:21;;;;;;;12.47;6.22;;;;;;;6.49;69.11;100112.22;1722044;82;21052;-83
2022/02/09 11:17:01;;;;;;;17.20;6.92;;;;;;;6.57;69.20;100102.80;1753296;82;20944;-82
2022/02/09 11:19:39;;;;;;;17.90;7.90;;;;;;;6.68;69.09;100105.88;1745783;81;20988;-82
2022/02/09 11:22:23;;;;;;;17.17;6.70;;;;;;;6.81;69.38;100106.84;1734245;82;21004;-82
2022/02/09 11:24:46;;;;;;;17.73;7.70;;;;;;;6.87;68.43;100110.32;1721450;83;21017;-82
2022/02/09 11:27:32;;;;;;;19.75;9.05;;;;;;;6.94;68.16;100118.56;1721286;83;21019;-82
2022/02/09 11:30:16;;;;;;;18.65;7.37;;;;;;;7.10;68.33;100111.76;1702791;83;21040;-82
2022/02/09 11:33:01;;;;;;;16.42;7.47;;;;;;;7.16;67.71;100114.78;1747656;81;21002;-83
2022/02/09 11:35:36;;;;;;;15.60;6.70;;;;;;;7.14;67.46;100117.78;1757377;79;21030;-81
2022/02/09 11:40:53;;;;;;;14.65;6.95;;;;;;;7.19;67.56;100117.39;1723967;82;21050;-82
2022/02/09 11:43:38;;;;;;;16.93;7.85;;;;;;;7.19;67.34;100113.52;1724501;82;21087;-82
2022/02/09 11:46:23;;;;;;;16.60;7.78;;;;;;;7.14;67.57;100117.78;1728120;82;21039;-82
2022/02/09 12:09:13;;;;;;;19.45;7.58;;;;;;;7.07;68.17;100106.56;1765668;81;20991;-83
2022/02/09 12:11:38;;;;;;;15.18;6.90;;;;;;;7.23;68.76;100110.09;1749006;82;21055;-82
2022/02/09 12:17:12;;;;;;;16.93;8.20;;;;;;;7.33;68.55;100120.91;1768871;80;21061;-82
2022/02/09 12:19:29;;;;;;;17.35;7.05;;;;;;;7.30;68.02;100124.79;1742421;81;22203;-82
2022/02/09 12:22:14;;;;;;;16.48;7.50;;;;;;;7.29;68.04;100117.88;1741878;80;21012;-82
2022/02/09 12:24:42;;;;;;;14.83;7.22;;;;;;;7.32;67.85;100106.66;1749548;82;21151;-83
2022/02/09 12:27:16;;;;;;;16.75;8.40;;;;;;;7.38;67.91;100111.86;1766333;80;20994;-81
2022/02/09 12:29:46;;;;;;;20.02;7.78;;;;;;;7.36;67.42;100112.28;1743302;81;21032;-83
2022/02/09 12:32:23;;;;;;;22.15;8.78;;;;;;;7.47;67.41;100106.73;1762091;81;21016;-81
2022/02/09 12:35:05;;;;;;;14.53;7.60;;;;;;;7.40;67.72;100106.30;1756201;81;21011;-83
2022/02/09 12:37:36;;;;;;;23.07;8.68;;;;;;;7.54;67.25;100108.50;1751945;81;21005;-83
2022/02/09 12:40:10;;;;;;;16.23;7.97;;;;;;;7.51;67.46;100115.37;1763334;81;21461;-82
2022/02/09 12:42:41;;;;;;;20.27;7.80;;;;;;;7.56;67.37;100122.30;1771584;81;21040;-82
2022/02/09 12:45:15;;;;;;;16.07;7.25;;;;;;;7.54;67.24;100116.66;1761150;81;21037;-82
2022/02/09 12:47:46;;;;;;;18.17;8.35;;;;;;;7.52;67.27;100120.56;1749616;82;20989;-83
2022/02/09 12:50:22;;;;;;;18.37;6.97;;;;;;;7.52;67.22;100126.14;1763812;81;21032;-82
2022/02/09 12:52:51;;;;;;;15.15;7.25;;;;;;;7.48;67.00;100116.23;1756233;81;20984;-83
2022/02/09 12:55:25;;;;;;;22.50;7.22;;;;;;;7.41;67.18;100100.24;1755027;81;21380;-82
2022/02/09 12:57:57;;;;;;;16.37;8.23;;;;;;;7.55;67.23;100102.45;1765686;81;21129;-83
2022/02/09 13:00:48;;;;;;;17.17;8.18;;;;;;;7.60;67.07;100094.72;1771942;81;21000;-83
2022/02/09 13:03:20;;;;;;;24.15;8.53;;;;;;;7.70;67.16;100095.58;1771835;81;21019;-82
2022/02/09 13:06:00;;;;;;;18.27;7.65;;;;;;;7.73;66.99;100095.59;1770958;81;21021;-82
2022/02/09 13:08:28;;;;;;;14.90;7.78;;;;;;;7.79;66.65;100094.76;1756822;81;21262;-83
2022/02/09 13:11:49;;;;;;;13.28;7.35;;;;;;;7.84;66.54;100087.84;1762172;81;21019;-83
2022/02/09 13:13:35;;;;;;;15.88;6.62;;;;;;;7.84;66.35;100089.14;1720114;83;21046;-84
2022/02/09 13:16:17;;;;;;;17.57;7.33;;;;;;;7.83;66.64;100088.72;1737466;81;21047;-84
2022/02/09 14:17:49;;;;;;;19.70;8.10;;;;;;;7.97;66.16;100087.02;1710007;83;21039;-84
2022/02/09 14:56:02;;;;;;;16.00;7.35;;;;;;;7.81;65.61;100085.27;1729357;82;21514;-82
2022/02/09 14:58:28;;;;;;;12.03;6.30;;;;;;;7.80;65.75;100088.30;1740613;82;21019;-83
2022/02/09 15:01:02;;;;;;;17.95;7.17;;;;;;;7.75;65.82;100092.14;1721673;82;21067;-84
2022/02/09 15:06:39;;;;;;;18.92;6.97;;;;;;;7.72;65.90;100105.09;1745312;81;20959;-83
2022/02/09 15:11:36;;;;;;;15.63;7.40;;;;;;;7.65;66.30;100118.02;1751757;81;20968;-84
2022/02/09 15:16:45;;;;;;;12.90;5.97;;;;;;;7.62;66.41;100116.29;1747560;81;20965;-83
2022/02/09 15:19:16;;;;;;;15.75;5.62;;;;;;;7.61;66.72;100114.55;1728414;81;21011;-83
2022/02/09 15:22:05;;;;;;;16.37;5.92;;;;;;;7.60;66.88;100111.54;1716370;84;21051;-85
2022/02/09 15:24:39;;;;;;;19.37;6.72;;;;;;;7.64;67.60;100110.69;1718786;82;21057;-86
2022/02/09 15:27:05;;;;;;;25.43;7.70;;;;;;;7.61;67.48;100111.95;1718918;84;21051;-84
2022/02/09 15:29:35;;;;;;;23.12;7.00;;;;;;;7.63;67.78;100108.95;1718937;83;21456;-84
2022/02/09 15:32:04;;;;;;;21.55;7.45;;;;;;;7.48;67.68;100081.72;1718609;83;21035;-85
2022/02/09 15:34:44;;;;;;;19.12;7.47;;;;;;;7.63;67.42;100118.00;1718796;84;21061;-83
2022/02/09 15:39:45;;;;;;;19.52;8.10;;;;;;;7.59;67.15;100114.11;1622331;85;21298;-85
2022/02/09 15:42:34;;;;;;;22.30;8.18;;;;;;;7.52;67.04;100108.92;1676746;84;21055;-85
2022/02/09 15:59:13;;;;;;;18.73;8.13;;;;;;;7.20;66.98;100128.16;1699032;85;21014;-84
2022/02/09 16:08:06;;;;;;;20.68;8.23;;;;;;;7.04;67.45;100137.98;1677330;86;20995;-84
2022/02/09 16:09:38;;;;;;;20.25;7.70;;;;;;;6.99;67.80;100141.00;1674395;86;21080;-83
2022/02/09 16:22:34;;;;;;;26.62;8.95;;;;;;;6.85;68.74;100156.41;1683378;84;21188;-85
2022/02/09 16:33:15;;;;;;;16.12;8.68;;;;;;;6.76;69.58;100156.78;1779631;78;20979;-84
2022/02/09 16:46:25;;;;;;;22.42;10.15;;;;;;;6.52;69.36;100180.69;1779432;80;21036;-84
2022/02/09 16:49:09;;;;;;;17.87;8.93;;;;;;;6.48;69.31;100177.63;1779475;78;21000;-85
2022/02/09 16:51:42;;;;;;;21.68;8.98;;;;;;;6.46;69.33;100184.94;1779899;79;21284;-85
2022/02/09 16:54:28;;;;;;;24.02;10.53;;;;;;;6.41;69.18;100184.05;1777978;79;21039;-84
2022/02/09 16:56:51;;;;;;;24.60;10.65;;;;;;;6.37;69.50;100177.98;1776663;80;20967;-84
2022/02/09 17:21:12;;;;;;;62.78;21.42;;;;;;;5.81;72.04;100177.80;1779656;78;21267;-85
2022/02/09 17:23:39;;;;;;;43.73;17.23;;;;;;;5.81;71.53;100174.34;1779751;78;20995;-84
2022/02/09 17:26:06;;;;;;;27.17;11.53;;;;;;;5.78;72.03;100172.59;1782586;79;21385;-82
2022/02/09 17:28:33;;;;;;;23.80;11.40;;;;;;;5.74;73.08;100168.25;1790114;79;20974;-84
2022/02/09 17:31:16;;;;;;;30.23;12.85;;;;;;;5.71;72.64;100171.67;1748476;80;21024;31
2022/02/09 17:38:53;;;;;;;29.35;14.03;;;;;;;5.62;72.75;100163.80;1775996;80;21595;-87
2022/02/09 18:00:17;;;;;;;21.57;9.90;;;;;;;5.08;72.99;100208.21;1753903;81;20987;-83
2022/02/09 18:02:50;;;;;;;20.20;8.75;;;;;;;5.04;73.05;100210.73;1789642;78;20964;-84
2022/02/09 18:05:23;;;;;;;19.73;8.93;;;;;;;4.99;74.11;100215.80;1789638;78;20988;-84
2022/02/09 18:07:53;;;;;;;22.02;9.50;;;;;;;4.95;73.49;100208.86;1789399;78;21034;-83
2022/02/09 18:10:31;;;;;;;24.07;10.58;;;;;;;4.93;73.32;100210.15;1786515;79;21019;-83
2022/02/09 18:13:23;;;;;;;21.00;9.18;;;;;;;4.90;74.09;100206.22;1787332;78;21156;-82
2022/02/09 18:31:37;;;;;;;24.52;8.95;;;;;;;4.74;74.13;100217.13;1767664;80;21037;-84
2022/02/09 18:44:39;;;;;;;18.20;7.97;;;;;;;4.35;74.92;100222.02;1766632;78;21163;-87
2022/02/09 19:03:03;;;;;;;17.82;9.55;;;;;;;3.98;76.02;100234.22;1784741;79;21086;-83
2022/02/09 19:16:30;;;;;;;16.52;8.25;;;;;;;3.69;76.35;100234.47;1753636;80;20971;-83
2022/02/09 19:18:46;;;;;;;18.42;8.35;;;;;;;3.63;77.43;100236.92;1773541;79;21043;-84
2022/02/09 19:45:24;;;;;;;26.48;11.88;;;;;;;3.15;77.61;100239.72;1746355;80;21010;-84
2022/02/09 19:48:03;;;;;;;29.10;12.15;;;;;;;3.09;77.76;100235.72;1767022;79;21031;-84
2022/02/09 19:50:25;;;;;;;31.73;12.03;;;;;;;3.07;77.14;100234.82;1743583;77;21187;-87
2022/02/09 19:58:29;;;;;;;25.75;7.72;;;;;;;2.98;78.70;100220.07;1752200;81;21075;-83
2022/02/09 20:00:57;;;;;;;25.43;9.73;;;;;;;2.97;78.61;100219.60;1733975;80;20991;-84
2022/02/09 20:03:21;;;;;;;35.58;13.98;;;;;;;2.95;78.92;100203.28;1753450;79;21134;-86
2022/02/09 20:05:47;;;;;;;31.90;13.15;;;;;;;2.90;80.79;100210.00;1797704;80;21065;-85
2022/02/09 20:08:14;;;;;;;33.28;11.80;;;;;;;2.94;79.57;100209.66;1801026;78;21022;-83
2022/02/09 20:10:40;;;;;;;32.42;12.70;;;;;;;2.92;79.81;100217.33;1791879;80;21001;-86
2022/02/09 20:13:07;;;;;;;28.10;14.00;;;;;;;2.88;81.16;100214.66;1799460;78;20974;-91
2022/02/09 20:15:34;;;;;;;30.62;13.80;;;;;;;2.89;80.13;100216.41;1807051;78;21012;-90
2022/02/09 20:18:00;;;;;;;34.85;14.87;;;;;;;2.87;79.69;100214.22;1797262;79;20991;-90
2022/02/09 20:20:29;;;;;;;36.88;14.25;;;;;;;2.83;79.09;100212.41;1770586;79;20965;-89
2022/02/09 20:22:58;;;;;;;35.90;15.40;;;;;;;2.75;79.19;100214.80;1755367;79;20944;-85
2022/02/09 20:25:26;;;;;;;32.25;14.40;;;;;;;2.64;80.13;100217.50;1760720;78;20970;-85
2022/02/09 20:27:54;;;;;;;31.93;12.47;;;;;;;2.55;80.63;100211.31;1779821;78;21117;-86
2022/02/09 20:30:25;;;;;;;29.70;13.18;;;;;;;2.48;79.57;100215.82;1832646;77;21034;-84
2022/02/09 20:32:55;;;;;;;31.77;12.60;;;;;;;2.44;79.73;100220.42;1816911;77;21023;-82
2022/02/09 20:35:20;;;;;;;29.25;13.62;;;;;;;2.39;80.08;100225.45;1750483;78;21103;-82
2022/02/09 20:37:50;;;;;;;32.58;13.58;;;;;;;2.30;82.19;100230.75;1733525;81;21110;-80
2022/02/09 20:40:23;;;;;;;26.25;12.75;;;;;;;2.28;81.74;100231.13;1714611;82;21034;-83
2022/02/09 20:42:53;;;;;;;29.82;13.48;;;;;;;2.27;81.00;100226.80;1710198;81;20986;-81
2022/02/09 20:50:50;;;;;;;30.70;13.38;;;;;;;2.16;83.04;100221.41;1698543;81;21062;-84
2022/02/09 20:53:18;;;;;;;44.23;13.03;;;;;;;2.11;82.99;100221.29;1730186;82;21027;-87
2022/02/09 20:55:46;;;;;;;30.17;13.58;;;;;;;2.08;83.07;100214.78;1735089;82;21052;-88
2022/02/09 20:58:14;;;;;;;29.35;12.40;;;;;;;2.07;82.59;100219.86;1705819;81;21611;-86
2022/02/09 21:30:26;;;;;;;20.05;10.32;;;;;;;2.03;83.02;100222.78;1703077;80;21178;-81
2022/02/09 21:31:58;;;;;;;20.68;10.18;;;;;;;1.99;83.63;100220.53;1685633;82;21742;-81
2022/02/09 21:45:50;;;;;;;29.92;12.45;;;;;;;1.79;84.02;100227.67;1673115;83;21054;-81
2022/02/09 21:54:15;;;;;;;26.63;11.93;;;;;;;1.69;82.97;100232.09;1656218;81;22541;31
2022/02/09 22:26:28;;;;;;;26.02;11.45;;;;;;;1.32;83.99;100225.00;1706715;80;21117;31
2022/02/09 22:28:45;;;;;;;28.25;12.85;;;;;;;1.24;84.85;100218.36;1656429;80;21143;31
2022/02/09 22:31:37;;;;;;;25.60;11.90;;;;;;;1.15;85.67;100214.22;1640164;84;21205;31
2022/02/09 22:48:48;;;;;;;33.77;14.93;;;;;;;0.92;84.98;100215.67;1695237;79;21161;31
2022/02/09 22:56:41;;;;;;;33.23;12.82;;;;;;;0.75;85.77;100220.65;1707813;80;21103;-78
2022/02/09 22:59:16;;;;;;;33.02;12.80;;;;;;;0.66;86.53;100215.25;1731050;79;21063;-82
2022/02/09 23:01:44;;;;;;;33.18;14.28;;;;;;;0.63;86.87;100216.42;1711375;78;21194;-80
2022/02/09 23:18:12;;;;;;;34.30;12.88;;;;;;;0.47;86.98;100236.78;1673710;80;21221;31
2022/02/09 23:21:05;;;;;;;29.72;12.55;;;;;;;0.47;87.00;100234.23;1704071;79;23205;-77
